メインページ
METAR-TAF:

METAR-TAF

空港 :

ダーウィン国際空港

ダーウィン, オーストラリア

緯度: 12-24S, 経度: 130-52E, 海抜: 31m

現時点の気象観測

当レポートは28分前の21:30(UTC)に作成
北西の風 3kt
気温 28°C
湿度 79%
気圧 1012 hPa
視程10km以上
高度2000ftの雲はほとんどない
高度40000ftの千切れ雲あり

METAR: YPDN 202130Z 32003KT 9999 FEW020 BKN400 28/24 Q1012 NOSIG

時間: 07:28 (21:58 UTC)

予報

当レポートは4時間44分前の17:14(UTC)に作成
予報は20日の 18時(UTC)から 21日の 24時(UTC)まで有効
北/北西の風 5kt
視程10km以上
高度2000ftの雲は散在している
21日の 0200時(UTC)から
西/北西の風 12kt
視程10km以上
高度3500ftの雲は散在している
21日の 1200時(UTC)から
北/北西の風 12kt
視程10km以上
高度2000ftの雲はほとんどない
確率 30% :
20日の 18時(UTC)から 20日の 21時(UTC)まで一時的に
変向風 20kt、最大35ktの突風を伴う
視程: 1000m
高度1000ftの千切れ雲あり
高度2000ftの雲は散在している, 積乱雲.
激しい雷雨, 雨
確率 30% :
21日の 06時(UTC)から 21日の 12時(UTC)まで一時的に
変向風 20kt、最大45ktの突風を伴う
視程: 1000m
高度1000ftの千切れ雲あり
高度2000ftの雲は散在している, 積乱雲.
激しい雷雨, 雨

TAF: YPDN 201714Z 2018/2124 34005KT 9999 SCT020 FM210200 30012KT 9999 SCT035 FM211200 34012KT 9999 FEW020 PROB30 TEMPO 2018/2021 VRB20G35KT 1000 TSRA BKN010 SCT020CB PROB30 TEMPO 2106/2112 VRB20G45KT 1000 TSRA BKN010 SCT020CB

4,000以上の空港の気象観測と天気予報(METAR報とTAF報)

利用可能な観測所は地図上に黄色い丸と赤い丸で示す。

丸の上にカーソルを重ねると観測所名を参照できる。

次にクリックすると気象観測と天気予報を参照できる。

マップの切り替え:黒色「×」印の緑ボタンをクリックして拡大、「-」印の緑ボタンをクリックして縮小、緑色の三角印をクリックして隣りの地図に切り替え


METAR-TAF: